createdAt,value
2023-04-17T00:01:43.657Z,10.80
2023-04-17T00:04:11.600Z,10.47
2023-04-17T00:06:40.038Z,10.80
2023-04-17T00:09:07.039Z,11.00
2023-04-17T00:11:33.974Z,10.87
2023-04-17T00:14:00.941Z,11.43
2023-04-17T00:16:28.048Z,11.10
2023-04-17T00:18:55.820Z,11.13
2023-04-17T00:21:22.969Z,10.77
2023-04-17T00:23:49.972Z,10.80
2023-04-17T00:26:16.934Z,10.93
2023-04-17T00:28:43.925Z,11.50
2023-04-17T00:31:10.993Z,11.77
2023-04-17T00:33:37.953Z,12.17
2023-04-17T00:36:05.531Z,11.67
2023-04-17T00:38:32.452Z,10.23
2023-04-17T00:40:59.418Z,11.33
2023-04-17T00:43:26.421Z,11.10
2023-04-17T00:45:54.496Z,11.77
2023-04-17T00:48:24.311Z,11.20
2023-04-17T00:50:52.750Z,11.07
2023-04-17T00:53:19.725Z,11.70
2023-04-17T00:55:49.668Z,10.70
2023-04-17T00:58:16.642Z,12.40
2023-04-17T01:00:43.886Z,11.80
2023-04-17T01:03:11.441Z,11.77
2023-04-17T01:05:38.530Z,10.70
2023-04-17T01:08:05.880Z,11.40
2023-04-17T01:10:32.859Z,11.53
2023-04-17T01:13:07.806Z,10.67
2023-04-17T01:15:36.300Z,12.27
2023-04-17T01:18:03.772Z,12.73
2023-04-17T01:20:31.363Z,12.30
2023-04-17T01:22:59.296Z,11.83
2023-04-17T01:25:28.055Z,11.50
2023-04-17T01:27:55.182Z,12.40
2023-04-17T01:30:22.179Z,11.10
2023-04-17T01:32:49.164Z,12.07
2023-04-17T01:35:16.139Z,12.13
2023-04-17T01:37:43.096Z,12.40
2023-04-17T01:40:10.734Z,11.47
2023-04-17T01:42:37.638Z,12.20
2023-04-17T01:45:06.318Z,11.87
2023-04-17T01:47:33.273Z,12.80
2023-04-17T01:50:00.714Z,12.90
2023-04-17T01:52:27.634Z,12.07
2023-04-17T01:54:54.620Z,12.13
2023-04-17T01:57:21.886Z,12.33
2023-04-17T01:59:48.967Z,11.90
2023-04-17T02:02:16.223Z,12.10
2023-04-17T02:04:43.405Z,11.80
2023-04-17T02:07:10.361Z,12.90
2023-04-17T02:09:37.298Z,10.73
2023-04-17T02:12:04.480Z,13.17
2023-04-17T02:14:31.507Z,12.33
2023-04-17T02:16:58.437Z,13.00
2023-04-17T02:19:25.604Z,13.33
2023-04-17T02:21:52.621Z,11.60
2023-04-17T02:24:19.590Z,12.87
2023-04-17T02:26:46.774Z,14.47
2023-04-17T02:29:13.917Z,13.30
2023-04-17T02:31:41.625Z,13.10
2023-04-17T02:34:08.607Z,13.50
2023-04-17T02:36:35.532Z,13.73
2023-04-17T02:39:02.478Z,13.70
2023-04-17T02:41:29.474Z,13.30
2023-04-17T02:43:58.055Z,12.37
2023-04-17T02:46:24.981Z,13.17
2023-04-17T02:48:52.024Z,12.90
2023-04-17T02:51:18.938Z,12.70
2023-04-17T02:53:46.104Z,13.77
2023-04-17T02:56:13.068Z,13.47
2023-04-17T02:58:39.953Z,12.27
2023-04-17T03:01:06.940Z,12.07
2023-04-17T03:03:35.350Z,13.57
2023-04-17T03:06:02.853Z,12.97
2023-04-17T03:08:35.439Z,13.30
2023-04-17T03:11:03.483Z,12.47
2023-04-17T03:13:30.855Z,12.40
2023-04-17T03:15:58.616Z,13.60
2023-04-17T03:18:25.895Z,13.40
2023-04-17T03:20:54.040Z,14.40
2023-04-17T03:23:21.057Z,13.67
2023-04-17T03:25:48.764Z,13.70
2023-04-17T03:28:15.818Z,14.47
2023-04-17T03:30:42.716Z,13.63
2023-04-17T03:33:09.690Z,14.80
2023-04-17T03:35:37.510Z,14.27
2023-04-17T03:38:04.488Z,14.87
2023-04-17T03:40:33.200Z,14.43
2023-04-17T03:43:01.240Z,13.90
2023-04-17T03:45:28.255Z,14.50
2023-04-17T03:47:55.316Z,13.97
2023-04-17T03:50:22.256Z,14.70
2023-04-17T03:52:49.196Z,14.70
2023-04-17T03:55:16.960Z,14.23
2023-04-17T03:57:43.890Z,14.00
2023-04-17T04:00:12.397Z,16.20
2023-04-17T04:02:39.467Z,14.93
2023-04-17T04:05:07.443Z,16.30
2023-04-17T04:07:34.554Z,15.23
2023-04-17T04:10:01.452Z,13.97
2023-04-17T04:12:28.473Z,15.57
2023-04-17T04:14:55.400Z,15.50
2023-04-17T04:17:22.347Z,15.87
2023-04-17T04:19:49.309Z,14.97
2023-04-17T04:22:16.716Z,15.57
2023-04-17T04:24:43.674Z,15.70
2023-04-17T04:27:12.802Z,15.20
2023-04-17T04:29:39.728Z,15.43
2023-04-17T04:32:09.758Z,16.10
2023-04-17T04:34:36.846Z,15.63
2023-04-17T04:37:03.787Z,16.50
2023-04-17T04:39:30.765Z,16.57
2023-04-17T04:42:05.822Z,16.40
2023-04-17T04:44:32.848Z,18.10
2023-04-17T04:46:59.891Z,17.97
2023-04-17T04:49:27.138Z,16.03
2023-04-17T04:51:54.101Z,17.60
2023-04-17T04:54:21.150Z,16.50
2023-04-17T04:56:48.104Z,17.03
2023-04-17T04:59:15.304Z,16.53
2023-04-17T05:01:42.945Z,16.80
2023-04-17T05:04:10.108Z,16.10
2023-04-17T05:06:37.436Z,16.77
2023-04-17T05:09:04.492Z,15.57
2023-04-17T05:11:32.973Z,16.27
2023-04-17T05:13:59.900Z,17.00
2023-04-17T05:16:26.857Z,17.33
2023-04-17T05:18:53.999Z,16.93
2023-04-17T05:21:21.125Z,16.73
2023-04-17T05:23:48.098Z,16.87
2023-04-17T05:26:15.145Z,18.23
2023-04-17T05:28:42.068Z,17.63
2023-04-17T05:31:09.243Z,18.60
2023-04-17T05:33:36.291Z,18.57
2023-04-17T05:36:03.302Z,17.77
2023-04-17T05:38:30.238Z,19.47
2023-04-17T05:40:57.176Z,19.17
2023-04-17T05:43:24.116Z,18.40
2023-04-17T05:45:51.082Z,21.10
2023-04-17T05:48:18.062Z,19.57
2023-04-17T05:50:45.630Z,18.53
2023-04-17T05:53:12.613Z,21.03
2023-04-17T05:55:40.197Z,18.13
2023-04-17T05:58:20.498Z,20.57
2023-04-17T06:00:50.828Z,19.77
2023-04-17T06:03:18.653Z,18.20
2023-04-17T06:05:46.978Z,18.93
2023-04-17T06:08:14.100Z,20.00
2023-04-17T06:10:41.071Z,19.47
2023-04-17T06:13:08.512Z,19.40
2023-04-17T06:15:35.434Z,20.40
2023-04-17T06:18:02.475Z,19.90
2023-04-17T06:20:29.449Z,19.60
2023-04-17T06:22:57.241Z,19.30
2023-04-17T06:25:24.269Z,18.90
2023-04-17T06:27:51.248Z,18.77
2023-04-17T06:30:18.261Z,20.77
2023-04-17T06:32:45.253Z,18.43
2023-04-17T06:35:12.302Z,19.97
2023-04-17T06:37:39.248Z,17.40
2023-04-17T06:40:07.225Z,19.10
2023-04-17T06:42:35.388Z,17.43
2023-04-17T06:45:02.406Z,20.53
2023-04-17T06:47:29.471Z,18.80
2023-04-17T06:49:57.977Z,17.53
2023-04-17T06:52:25.223Z,19.60
2023-04-17T06:54:54.881Z,18.53
2023-04-17T06:57:22.349Z,18.00
2023-04-17T06:59:49.553Z,19.27
2023-04-17T07:02:16.701Z,16.90
2023-04-17T07:04:43.801Z,15.70
2023-04-17T07:07:11.946Z,17.93
2023-04-17T07:09:39.071Z,16.97
2023-04-17T07:12:06.065Z,17.80
2023-04-17T07:14:33.627Z,16.07
2023-04-17T07:17:00.696Z,16.03
2023-04-17T07:19:27.656Z,16.60
2023-04-17T07:21:54.568Z,16.50
2023-04-17T07:24:21.480Z,17.40
2023-04-17T07:26:49.609Z,17.17
2023-04-17T07:29:16.859Z,16.87
2023-04-17T07:31:44.171Z,17.07
2023-04-17T07:34:11.181Z,18.13
2023-04-17T07:36:38.128Z,17.93
2023-04-17T07:39:06.507Z,17.57
2023-04-17T07:41:33.515Z,18.40
2023-04-17T07:44:03.316Z,16.87
2023-04-17T07:46:30.440Z,17.83
2023-04-17T07:48:57.595Z,15.10
2023-04-17T07:51:24.670Z,16.93
2023-04-17T07:53:51.562Z,17.17
2023-04-17T07:56:18.530Z,18.97
2023-04-17T07:58:45.516Z,17.33
2023-04-17T08:01:12.930Z,17.13
2023-04-17T08:03:41.741Z,17.13
2023-04-17T08:06:08.965Z,16.17
2023-04-17T08:08:36.266Z,16.30
2023-04-17T08:11:03.903Z,17.00
2023-04-17T08:13:34.404Z,16.53
2023-04-17T08:16:01.628Z,17.20
2023-04-17T08:18:28.596Z,17.57
2023-04-17T08:20:55.563Z,18.07
2023-04-17T08:23:22.661Z,16.87
2023-04-17T08:25:49.753Z,17.27
2023-04-17T08:28:16.950Z,15.87
2023-04-17T08:30:43.899Z,15.70
2023-04-17T08:33:13.364Z,15.83
2023-04-17T08:35:40.472Z,16.53
2023-04-17T08:38:08.295Z,17.47
2023-04-17T08:40:35.369Z,17.20
2023-04-17T08:43:02.813Z,16.17
2023-04-17T08:45:30.040Z,18.60
2023-04-17T08:47:57.088Z,16.80
2023-04-17T08:50:24.350Z,19.07
2023-04-17T08:52:52.713Z,17.60
2023-04-17T08:55:22.335Z,16.80
2023-04-17T08:58:01.167Z,18.00
2023-04-17T09:00:37.089Z,18.07
2023-04-17T09:03:11.237Z,17.27
2023-04-17T09:05:41.793Z,18.00
2023-04-17T09:08:24.160Z,18.30
2023-04-17T09:10:55.854Z,17.10
2023-04-17T09:13:25.791Z,16.50
2023-04-17T09:16:15.825Z,15.73
2023-04-17T09:18:43.465Z,17.27
2023-04-17T09:21:10.649Z,16.70
2023-04-17T09:23:56.401Z,17.70
2023-04-17T09:26:27.510Z,17.80
2023-04-17T09:29:12.451Z,15.57
2023-04-17T09:31:42.399Z,16.47
2023-04-17T09:34:12.030Z,17.03
2023-04-17T09:36:42.089Z,16.90
2023-04-17T09:39:24.582Z,15.50
2023-04-17T09:42:03.966Z,16.10
2023-04-17T09:44:31.363Z,14.43
2023-04-17T09:47:01.343Z,14.10
2023-04-17T09:49:49.562Z,15.10
2023-04-17T09:52:17.124Z,14.23
2023-04-17T09:54:47.303Z,13.43
2023-04-17T09:57:14.273Z,12.80
2023-04-17T09:59:45.879Z,12.20
2023-04-17T10:02:15.530Z,11.70
2023-04-17T10:04:44.879Z,12.50
2023-04-17T10:07:16.645Z,11.00
2023-04-17T10:09:46.940Z,12.10
2023-04-17T10:12:19.157Z,12.43
2023-04-17T10:14:50.154Z,10.93
2023-04-17T10:17:31.637Z,12.40
2023-04-17T10:20:23.640Z,12.10
2023-04-17T10:22:55.971Z,10.27
2023-04-17T10:25:27.994Z,11.80
2023-04-17T10:28:02.555Z,11.70
2023-04-17T10:30:54.850Z,11.50
2023-04-17T10:33:25.673Z,11.40
2023-04-17T10:35:54.001Z,10.60
2023-04-17T10:38:47.299Z,11.43
2023-04-17T10:41:14.246Z,12.27
2023-04-17T10:43:44.308Z,11.93
2023-04-17T10:46:15.110Z,11.30
2023-04-17T10:48:52.536Z,10.67
2023-04-17T10:51:27.551Z,11.33
2023-04-17T10:54:00.258Z,11.23
2023-04-17T10:56:30.663Z,12.83
2023-04-17T10:59:05.513Z,11.73
2023-04-17T11:01:37.281Z,11.00
2023-04-17T11:04:05.191Z,12.37
2023-04-17T11:06:36.987Z,10.73
2023-04-17T11:09:08.073Z,10.82
2023-04-17T11:11:45.227Z,11.03
2023-04-17T11:14:18.095Z,11.43
2023-04-17T11:16:48.296Z,11.83
2023-04-17T11:19:21.490Z,10.93
2023-04-17T11:21:50.996Z,11.63
2023-04-17T11:24:29.560Z,10.40
2023-04-17T11:26:59.694Z,11.13
2023-04-17T11:29:27.931Z,11.80
2023-04-17T11:31:57.226Z,12.60
2023-04-17T11:34:27.080Z,11.90
2023-04-17T11:36:59.929Z,11.07
2023-04-17T11:39:30.546Z,12.10
2023-04-17T11:41:58.012Z,12.90
2023-04-17T11:44:25.844Z,11.67
2023-04-17T11:46:58.784Z,12.07
2023-04-17T11:49:33.015Z,12.90
2023-04-17T11:52:02.202Z,11.80
2023-04-17T11:54:31.426Z,11.20
2023-04-17T11:57:13.541Z,12.10
2023-04-17T11:59:42.539Z,13.30
2023-04-17T12:02:09.999Z,11.63
2023-04-17T12:04:39.710Z,11.50
2023-04-17T12:07:08.904Z,11.40
2023-04-17T12:09:36.618Z,11.33
2023-04-17T12:12:08.278Z,11.27
2023-04-17T12:14:35.842Z,12.60
2023-04-17T12:17:02.925Z,10.37
2023-04-17T12:19:31.781Z,10.77
2023-04-17T12:21:59.753Z,11.27
2023-04-17T12:24:27.191Z,11.37
2023-04-17T12:26:54.642Z,11.43
2023-04-17T12:29:29.535Z,10.83
2023-04-17T12:32:10.346Z,13.37
2023-04-17T12:34:37.493Z,12.63
2023-04-17T12:37:04.484Z,13.17
2023-04-17T12:39:32.688Z,13.53
2023-04-17T12:41:59.670Z,12.07
2023-04-17T12:44:26.898Z,14.10
2023-04-17T12:46:53.909Z,12.73
2023-04-17T12:49:21.017Z,12.87
2023-04-17T12:51:47.954Z,14.43
2023-04-17T12:54:15.035Z,12.40
2023-04-17T12:56:42.075Z,12.20
2023-04-17T12:59:09.015Z,10.50
2023-04-17T13:01:36.101Z,11.23
2023-04-17T13:04:03.685Z,9.63
2023-04-17T13:06:30.731Z,10.40
2023-04-17T13:08:57.659Z,10.30
2023-04-17T13:11:24.584Z,8.70
2023-04-17T13:13:51.507Z,9.77
2023-04-17T13:16:18.533Z,10.90
2023-04-17T13:18:45.565Z,11.20
2023-04-17T13:21:12.513Z,12.40
2023-04-17T13:23:39.476Z,10.50
2023-04-17T13:26:06.419Z,12.87
2023-04-17T13:28:33.345Z,12.93
2023-04-17T13:31:00.327Z,12.93
2023-04-17T13:33:27.275Z,11.73
2023-04-17T13:35:54.230Z,12.83
2023-04-17T13:38:21.212Z,14.53
2023-04-17T13:40:48.101Z,13.80
2023-04-17T13:43:14.981Z,14.40
2023-04-17T13:45:42.434Z,15.47
2023-04-17T13:48:09.384Z,16.30
2023-04-17T13:50:36.469Z,17.33
2023-04-17T13:53:03.458Z,18.40
2023-04-17T13:55:30.425Z,22.03
2023-04-17T13:57:57.817Z,19.40
2023-04-17T14:00:24.864Z,17.00
2023-04-17T14:02:51.958Z,20.87
2023-04-17T14:05:19.009Z,44.60
2023-04-17T14:07:45.886Z,33.83
2023-04-17T14:10:13.764Z,33.17
2023-04-17T14:12:40.930Z,18.90
2023-04-17T14:15:08.702Z,27.20
2023-04-17T14:17:38.625Z,20.60
2023-04-17T14:20:06.781Z,24.37
2023-04-17T14:22:33.687Z,44.90
2023-04-17T14:25:00.582Z,47.60
2023-04-17T14:27:27.669Z,20.83
2023-04-17T14:29:54.619Z,25.47
2023-04-17T14:32:21.542Z,30.63
2023-04-17T14:34:48.446Z,25.87
2023-04-17T14:37:15.457Z,26.63
2023-04-17T14:39:42.344Z,20.03
2023-04-17T14:42:09.242Z,18.37
2023-04-17T14:44:36.235Z,22.73
2023-04-17T14:47:03.475Z,23.73
2023-04-17T14:49:30.554Z,22.93
2023-04-17T14:51:57.617Z,33.13
2023-04-17T14:54:24.610Z,27.27
2023-04-17T14:56:51.719Z,24.57
2023-04-17T14:59:18.744Z,24.27
2023-04-17T15:01:46.301Z,26.23
2023-04-17T15:04:13.457Z,18.30
2023-04-17T15:06:40.561Z,24.83
2023-04-17T15:09:07.487Z,26.00
2023-04-17T15:11:34.450Z,19.53
2023-04-17T15:14:01.478Z,19.90
2023-04-17T15:16:28.792Z,26.93
2023-04-17T15:18:55.703Z,23.83
2023-04-17T15:21:22.618Z,18.10
2023-04-17T15:23:49.597Z,22.47
2023-04-17T15:26:16.552Z,19.47
2023-04-17T15:28:43.518Z,20.20
2023-04-17T15:31:10.532Z,23.83
2023-04-17T15:33:38.173Z,19.27
2023-04-17T15:36:05.219Z,22.97
2023-04-17T15:38:32.276Z,20.50
2023-04-17T15:40:59.438Z,19.37
2023-04-17T15:43:26.934Z,21.50
2023-04-17T15:45:54.938Z,19.70
2023-04-17T15:48:21.911Z,19.33
2023-04-17T15:50:48.805Z,17.83
2023-04-17T15:53:15.841Z,19.27
2023-04-17T15:55:42.767Z,18.43
2023-04-17T15:58:09.654Z,18.27
2023-04-17T16:00:36.623Z,17.60
2023-04-17T16:03:03.873Z,20.57
2023-04-17T16:05:30.978Z,19.40
2023-04-17T16:07:57.910Z,19.47
2023-04-17T16:10:25.253Z,14.73
2023-04-17T16:12:52.217Z,16.90
2023-04-17T16:15:19.334Z,16.70
2023-04-17T16:17:48.615Z,18.20
2023-04-17T16:20:15.947Z,17.00
2023-04-17T16:22:42.850Z,17.93
2023-04-17T16:25:12.173Z,18.40
2023-04-17T16:27:40.321Z,15.67
2023-04-17T16:30:09.651Z,16.10
2023-04-17T16:32:36.617Z,15.30
2023-04-17T16:35:03.731Z,14.20
2023-04-17T16:37:30.911Z,12.77
2023-04-17T16:39:57.925Z,13.40
2023-04-17T16:42:24.841Z,13.70
2023-04-17T16:44:52.022Z,13.73
2023-04-17T16:47:19.049Z,13.70
2023-04-17T16:49:46.107Z,13.47
2023-04-17T16:52:13.021Z,12.70
2023-04-17T16:54:39.967Z,12.93
2023-04-17T16:57:06.890Z,12.27
2023-04-17T16:59:33.786Z,14.40
2023-04-17T17:02:02.442Z,13.90
2023-04-17T17:04:30.538Z,13.37
2023-04-17T17:06:57.807Z,14.33
2023-04-17T17:09:25.782Z,13.93
2023-04-17T17:11:53.039Z,12.70
2023-04-17T17:14:19.991Z,16.10
2023-04-17T17:16:47.043Z,15.50
2023-04-17T17:19:14.849Z,17.53
2023-04-17T17:21:41.997Z,14.40
2023-04-17T17:24:09.080Z,14.83
2023-04-17T17:26:37.052Z,14.67
2023-04-17T17:29:04.797Z,13.83
2023-04-17T17:31:34.104Z,16.00
2023-04-17T17:34:11.945Z,16.17
2023-04-17T17:36:49.349Z,15.20
2023-04-17T17:39:16.756Z,15.20
2023-04-17T17:41:45.844Z,14.00
2023-04-17T17:44:14.529Z,15.00
2023-04-17T17:46:42.114Z,15.07
2023-04-17T17:49:09.240Z,14.33
2023-04-17T17:51:36.167Z,15.33
2023-04-17T17:54:03.096Z,14.20
2023-04-17T17:56:30.224Z,15.40
2023-04-17T17:58:57.224Z,14.93
2023-04-17T18:01:25.017Z,14.50
2023-04-17T18:03:53.209Z,13.37
2023-04-17T18:06:20.938Z,13.37
2023-04-17T18:08:48.072Z,12.80
2023-04-17T18:11:15.149Z,13.07
2023-04-17T18:13:42.098Z,13.57
2023-04-17T18:16:09.205Z,13.43
2023-04-17T18:18:36.556Z,15.00
2023-04-17T18:21:07.524Z,15.10
2023-04-17T18:23:35.224Z,14.30
2023-04-17T18:26:03.228Z,14.23
2023-04-17T18:28:30.198Z,13.50
2023-04-17T18:30:57.310Z,13.83
2023-04-17T18:33:24.650Z,15.57
2023-04-17T18:35:51.911Z,15.57
2023-04-17T18:38:18.826Z,15.17
2023-04-17T18:40:45.762Z,14.30
2023-04-17T18:43:12.707Z,16.07
2023-04-17T18:45:39.658Z,11.97
2023-04-17T18:48:06.787Z,14.40
2023-04-17T18:50:33.751Z,15.23
2023-04-17T18:53:00.732Z,15.23
2023-04-17T18:55:27.674Z,15.80
2023-04-17T18:57:54.592Z,14.87
2023-04-17T19:00:21.700Z,15.37
2023-04-17T19:02:48.776Z,14.83
2023-04-17T19:05:15.954Z,16.10
2023-04-17T19:07:42.922Z,15.00
2023-04-17T19:10:10.574Z,15.80
2023-04-17T19:12:37.519Z,16.23
2023-04-17T19:15:06.343Z,15.20
2023-04-17T19:17:33.331Z,15.17
2023-04-17T19:20:00.300Z,16.83
2023-04-17T19:22:27.259Z,14.80
2023-04-17T19:24:54.228Z,14.73
2023-04-17T19:27:21.156Z,15.97
2023-04-17T19:29:48.087Z,15.27
2023-04-17T19:32:18.048Z,15.47
2023-04-17T19:34:45.186Z,16.40
2023-04-17T19:37:12.394Z,16.27
2023-04-17T19:39:39.318Z,17.37
2023-04-17T19:42:06.384Z,15.33
2023-04-17T19:44:33.337Z,17.53
2023-04-17T19:47:00.388Z,16.80
2023-04-17T19:49:27.275Z,17.87
2023-04-17T19:51:54.503Z,18.93
2023-04-17T19:54:21.498Z,16.83
2023-04-17T19:56:48.461Z,18.90
2023-04-17T19:59:15.690Z,15.47
2023-04-17T20:01:44.418Z,17.07
2023-04-17T20:04:11.854Z,16.30
2023-04-17T20:06:39.816Z,16.57
2023-04-17T20:09:07.065Z,16.63
2023-04-17T20:11:34.526Z,15.93
2023-04-17T20:14:01.588Z,16.30
2023-04-17T20:16:28.658Z,17.73
2023-04-17T20:18:56.686Z,15.77
2023-04-17T20:21:24.213Z,15.47
2023-04-17T20:23:51.202Z,18.20
2023-04-17T20:26:18.482Z,16.27
2023-04-17T20:28:45.535Z,15.60
2023-04-17T20:31:12.464Z,14.80
2023-04-17T20:33:39.493Z,16.37
2023-04-17T20:36:06.565Z,15.63
2023-04-17T20:38:33.764Z,16.00
2023-04-17T20:41:00.859Z,14.33
2023-04-17T20:43:27.819Z,15.07
2023-04-17T20:45:54.749Z,16.53
2023-04-17T20:48:22.017Z,16.20
2023-04-17T20:50:49.039Z,15.87
2023-04-17T20:53:15.993Z,16.40
2023-04-17T20:55:43.012Z,16.67
2023-04-17T20:58:10.510Z,15.40
2023-04-17T21:00:44.489Z,15.10
2023-04-17T21:03:21.318Z,15.50
2023-04-17T21:05:48.300Z,15.47
2023-04-17T21:08:15.332Z,15.43
2023-04-17T21:10:42.237Z,16.50
2023-04-17T21:13:09.182Z,17.77
2023-04-17T21:15:36.150Z,14.87
2023-04-17T21:18:03.174Z,15.90
2023-04-17T21:20:30.340Z,15.97
2023-04-17T21:22:57.256Z,15.77
2023-04-17T21:25:24.253Z,15.30
2023-04-17T21:27:51.181Z,14.13
2023-04-17T21:30:18.121Z,12.90
2023-04-17T21:32:47.069Z,15.13
2023-04-17T21:35:14.118Z,15.77
2023-04-17T21:37:40.991Z,15.70
2023-04-17T21:40:08.780Z,12.70
2023-04-17T21:42:35.667Z,15.80
2023-04-17T21:45:02.656Z,15.07
2023-04-17T21:47:29.598Z,13.87
2023-04-17T21:49:56.678Z,14.33
2023-04-17T21:52:23.643Z,16.63
2023-04-17T21:54:50.542Z,14.37
2023-04-17T21:57:17.684Z,15.03
2023-04-17T21:59:44.603Z,13.83
2023-04-17T22:02:11.826Z,15.17
2023-04-17T22:04:38.889Z,15.33
2023-04-17T22:07:06.571Z,15.53
2023-04-17T22:09:33.500Z,13.70
2023-04-17T22:12:00.412Z,14.50
2023-04-17T22:14:27.391Z,14.80
2023-04-17T22:16:54.371Z,15.30
2023-04-17T22:19:21.404Z,13.80
2023-04-17T22:21:48.353Z,13.97
2023-04-17T22:24:15.478Z,15.03
2023-04-17T22:26:42.535Z,14.10
2023-04-17T22:29:09.454Z,14.90
2023-04-17T22:31:36.549Z,13.43
2023-04-17T22:34:03.682Z,12.73
2023-04-17T22:36:31.119Z,13.97
2023-04-17T22:38:58.243Z,14.90
2023-04-17T22:41:25.199Z,14.73
2023-04-17T22:43:52.210Z,14.30
2023-04-17T22:46:19.124Z,14.53
2023-04-17T22:48:46.236Z,14.20
2023-04-17T22:51:13.488Z,13.87
2023-04-17T22:53:40.532Z,14.50
2023-04-17T22:56:12.279Z,14.60
2023-04-17T22:58:39.252Z,14.43
2023-04-17T23:01:06.425Z,14.63
2023-04-17T23:03:34.917Z,14.10
2023-04-17T23:06:01.924Z,14.27
2023-04-17T23:08:30.918Z,14.97
2023-04-17T23:11:01.659Z,14.97
2023-04-17T23:13:29.453Z,14.10
2023-04-17T23:15:56.491Z,13.50
2023-04-17T23:18:23.783Z,13.80
2023-04-17T23:20:50.752Z,13.13
2023-04-17T23:23:20.645Z,13.00
2023-04-17T23:25:47.617Z,13.30
2023-04-17T23:28:14.741Z,14.20
2023-04-17T23:30:41.689Z,14.00
2023-04-17T23:33:09.706Z,14.03
2023-04-17T23:35:36.684Z,13.03
2023-04-17T23:38:03.693Z,13.90
2023-04-17T23:40:32.608Z,13.37
2023-04-17T23:43:00.092Z,12.97
2023-04-17T23:45:27.035Z,13.23
2023-04-17T23:47:54.013Z,13.77
2023-04-17T23:50:21.128Z,14.60
2023-04-17T23:52:48.045Z,12.83
2023-04-17T23:55:15.373Z,13.37
2023-04-17T23:57:42.303Z,12.60
